Terminal Aerodrome Forecast
Issued by NWS

Home | Current Version | Previous Version | Text Only | Print | Product List | Glossary On
Versions: 1 2 3 4 5 6 7 8 9 10 11 12 13 14 15 16 17 18 19 20 21 22 23 24
000
FTUS42 KMHX 172300 RRA
TAFPGV
TAF
KPGV 172341Z 1800/1824 07005KT P6SM SCT025 BKN040
     FM180700 03005KT 4SM BR SCT007 BKN025
     FM181300 04005KT P6SM BKN035
      AMD LTD TO CLD VIS AND WIND=

USA.gov is the U.S. government's official web portal to all federal, state and local government web resources and services.